Aeroporto :
LOGIN :

Iscrizione | Disclaimer

   EN    FR    IT 

 










Sommario :    VFR   VFR Marginale   IFR   IFR Intensivo   IFR Molto Intensivo
Visibilità : 
Base nubi : 
>= 8 km
>= 3000ft
5 / 8 km
1000 / 3000 ft
1500m / 5 km
500 / 1000 ft
800 / 1500m
200 / 500 ft
< 800m
< 200 ft
Simboli :   Temporali  Nebbia  Neve Forte  Precipitazioni Forti  Vento > 20 kt
SIGMETs :   Varie  Temporali  Ghiacco  Turbolenza  Onda orograficha  Ceneri Vulcaniche






- Altitudine del aeroporto : -15 ft
- Codice IATA : RTM


EHRD - Rotterdam Zestienhoven

ULTIMO METAR :
  • 190325Z AUTO 33007KT 290V360 9999 SCT024 SCT029 04/02 Q1033 TEMPO 7000 -SHRA SCT020CB

METARs OBSOLETI :
  • 190255Z AUTO 32007KT 290V360 9999 NCD 04/01 Q1033 TEMPO 7000 -SHRA SCT020CB
  • 190225Z AUTO 33006KT 270V040 9999 FEW001 FEW015CB SCT033 04/01 Q1033 RERAUP TEMPO 7000 -SHRA SCT020CB
  • 190155Z AUTO 27005KT 240V300 9999 FEW015CB SCT029 BKN045 03/01 Q1032 TEMPO 7000 -SHRA SCT020CB
  • 190125Z AUTO 31005KT 9999 NCD 02/01 Q1032 TEMPO 7000 -SHRA SCT020CB

TAF TAF EHRD
Valido dal 19 a 00 ore il 20 a 06 ore UTC


182318Z 1900/2006 30006KT 9999 SCT025
PROB40
TEMPO 1900/1909 6000 SHRA SHRAGS FEW018CB SCT022
BECMG 1903/1906 35010KT
BECMG 1915/1918 32005KT
BECMG 1922/1924 7000 MIFG SCT015
PROB40
TEMPO 2002/2006 VRB03KT 1400 BCFG NSC



MetMap, La meteo Aeronautica in un colpo d'occhio ! - Copyright ORBIFLY Dicembre 2007 - Disclaimer

ORBIFLY MET'MAP TEAM :

Programmazione e sviluppo : Alexandra Zaïnal
Concezione : Baudouin d'Aumeries
Aiuto per la programmazione : Marc-Olivier Méhu
Supporto tecnico e logistico : Manuel Goepfert
Aiuto per la traduzione : Arnaldo La Scala

Contatto : metmap@orbifly.com




FONTI E CREDITI :

   NOAA